Time;durP1;ratioP1;P1;durP2;ratioP2;P2;SDS_P1;SDS_P2;PMS_P1;PMS_P2;Temp;Humidity;BMP_temperature;BMP_pressure;BME280_temperature;BME280_humidity;BME280_pressure;Samples;Min_cycle;Max_cycle;Signal;HPM_P1;HPM_P2
2022/09/26 00:01:12;;;;;;;4.70;3.37;;;13.20;78.30;;;15.69;58.86;100695.88;5057326;28;20269;-65
2022/09/26 00:03:43;;;;;;;4.47;3.60;;;13.20;78.40;;;15.69;59.20;100692.44;5056575;28;20233;-66
2022/09/26 00:06:11;;;;;;;3.57;3.10;;;13.20;78.50;;;15.67;59.29;100683.84;5054599;28;20198;-65
2022/09/26 00:08:40;;;;;;;6.90;3.20;;;13.20;78.60;;;15.64;59.72;100679.81;5055487;28;20197;-65
2022/09/26 00:11:10;;;;;;;4.87;3.67;;;13.20;78.60;;;15.62;59.39;100673.06;5053003;28;20197;-64
2022/09/26 00:13:41;;;;;;;3.93;2.77;;;13.10;78.50;;;15.61;59.66;100669.59;5054005;28;20226;-64
2022/09/26 00:16:11;;;;;;;4.03;3.13;;;13.10;78.50;;;15.58;59.58;100667.34;5055171;28;20647;-65
2022/09/26 00:18:39;;;;;;;3.03;2.70;;;13.10;78.80;;;15.58;59.71;100664.69;5055499;28;20902;-64
2022/09/26 00:21:09;;;;;;;5.13;3.50;;;13.10;78.50;;;15.57;59.57;100663.06;5054683;28;20190;-65
2022/09/26 00:23:37;;;;;;;4.40;3.20;;;13.10;78.80;;;15.56;59.28;100656.97;5055057;28;20686;-64
2022/09/26 00:26:06;;;;;;;7.27;3.50;;;13.00;79.50;;;15.55;59.58;100654.50;5054896;28;20190;-64
2022/09/26 00:28:34;;;;;;;5.03;3.20;;;13.00;78.80;;;15.51;59.51;100650.66;5054769;28;20243;-65
2022/09/26 00:31:04;;;;;;;6.17;3.23;;;13.00;79.10;;;15.45;59.48;100654.94;5056109;28;20994;-65
2022/09/26 00:33:32;;;;;;;3.50;3.20;;;13.00;79.00;;;15.43;59.97;100648.19;5056599;28;20312;-65
2022/09/26 00:35:59;;;;;;;4.13;3.67;;;13.00;79.20;;;15.41;59.94;100640.44;5055977;28;20186;-65
2022/09/26 00:38:27;;;;;;;3.40;3.10;;;12.90;79.10;;;15.41;59.82;100636.97;5056231;28;20196;-64
2022/09/26 00:40:54;;;;;;;6.20;3.30;;;12.90;79.00;;;15.40;59.87;100632.69;5054530;28;20190;-65
2022/09/26 00:43:29;;;;;;;3.97;3.67;;;12.90;79.10;;;15.35;60.05;100635.16;5053125;28;20241;-66
2022/09/26 00:46:05;;;;;;;5.50;3.50;;;12.90;79.30;;;15.31;60.05;100637.41;5053691;28;20197;-65
2022/09/26 00:48:35;;;;;;;3.67;2.93;;;12.90;79.30;;;15.35;59.99;100632.50;5053820;28;20182;-65
2022/09/26 00:51:05;;;;;;;3.50;2.80;;;12.90;79.30;;;15.35;60.10;100619.25;5054386;28;20174;-65
2022/09/26 00:53:38;;;;;;;5.03;3.40;;;12.90;79.40;;;15.30;59.97;100619.88;5055365;28;20232;-65
2022/09/26 00:56:14;;;;;;;4.77;3.37;;;12.80;79.30;;;15.29;60.34;100620.06;5055528;28;20554;-65
2022/09/26 00:58:52;;;;;;;4.83;3.77;;;12.90;79.30;;;15.26;60.19;100615.19;5058948;28;20259;-65
2022/09/26 01:01:21;;;;;;;4.27;2.90;;;12.80;79.30;;;15.31;59.94;100613.53;5037060;28;20210;-65
2022/09/26 01:03:50;;;;;;;7.13;3.27;;;12.80;79.30;;;15.33;60.13;100613.34;5034480;28;20236;-66
2022/09/26 01:06:20;;;;;;;3.63;3.23;;;12.80;79.30;;;15.37;60.13;100603.94;5034378;28;20200;-65
2022/09/26 01:08:54;;;;;;;4.30;3.13;;;12.90;79.50;;;15.39;59.74;100607.19;5034257;28;20187;-64
2022/09/26 01:11:22;;;;;;;4.83;3.23;;;12.90;79.50;;;15.39;60.04;100596.56;5034002;28;20195;-64
2022/09/26 01:13:53;;;;;;;4.63;2.77;;;12.90;79.40;;;15.43;59.62;100592.47;5034229;28;20218;-64
2022/09/26 01:16:20;;;;;;;4.80;3.07;;;12.90;79.30;;;15.46;59.78;100592.09;5034123;28;20194;-65
2022/09/26 01:18:48;;;;;;;3.93;3.03;;;12.90;79.30;;;15.46;59.70;100584.13;5034547;28;20199;-66
2022/09/26 01:22:01;;;;;;;5.37;2.97;;;12.90;79.30;;;15.45;59.80;100579.88;5033882;28;20717;-65
2022/09/26 01:24:49;;;;;;;3.63;2.90;;;12.90;79.30;;;15.39;59.80;100576.19;5034714;28;20214;-65
2022/09/26 01:27:45;;;;;;;4.53;3.03;;;12.90;79.30;;;15.40;60.23;100566.38;5034599;28;20201;-67
2022/09/26 01:30:20;;;;;;;4.70;2.93;;;12.90;79.40;;;15.44;59.87;100562.28;5033887;28;20182;-65
2022/09/26 01:33:32;;;;;;;3.93;2.97;;;12.90;79.40;;;15.39;60.01;100562.09;5034965;28;20237;-64
2022/09/26 01:36:26;;;;;;;2.50;2.27;;;12.90;79.40;;;15.35;60.12;100552.94;5032766;28;20213;-65
2022/09/26 01:39:12;;;;;;;4.07;3.03;;;12.90;79.30;;;15.38;59.68;100552.53;5033897;28;20190;-65
2022/09/26 01:41:56;;;;;;;3.80;2.93;;;12.90;79.40;;;15.39;59.93;100559.44;5033272;28;20600;-65
2022/09/26 01:44:33;;;;;;;3.40;2.73;;;12.90;80.10;;;15.45;59.86;100553.34;5033266;28;20186;-65
2022/09/26 01:47:13;;;;;;;5.70;3.00;;;13.00;79.50;;;15.48;59.92;100552.91;5033546;28;20248;-65
2022/09/26 01:49:53;;;;;;;4.93;2.50;;;13.00;79.50;;;15.53;60.03;100545.13;5034548;28;20594;-64
2022/09/26 01:52:36;;;;;;;5.23;3.17;;;13.00;79.50;;;15.52;59.76;100538.22;5033038;28;20213;-64
2022/09/26 01:55:12;;;;;;;5.47;3.33;;;13.00;79.50;;;15.48;59.95;100542.28;5032066;28;20237;-64
2022/09/26 01:57:48;;;;;;;4.67;3.20;;;13.00;79.40;;;15.51;60.02;100533.91;5032591;28;20244;-64
2022/09/26 02:00:18;;;;;;;5.67;2.90;;;13.00;79.40;;;15.52;59.76;100527.59;5033642;28;20329;-64
2022/09/26 02:02:49;;;;;;;3.30;3.00;;;13.00;79.40;;;15.46;59.91;100528.44;5037844;28;20215;-66
2022/09/26 02:05:26;;;;;;;3.00;2.70;;;13.00;79.50;;;15.49;59.88;100520.06;5042121;28;20225;-66
2022/09/26 02:08:01;;;;;;;4.30;2.63;;;13.00;79.40;;;15.52;59.88;100522.28;5040592;28;20179;-65
2022/09/26 02:10:36;;;;;;;3.93;3.13;;;13.10;79.50;;;15.54;59.73;100509.63;5040829;28;20662;-68
2022/09/26 02:13:12;;;;;;;6.73;3.07;;;13.10;79.40;;;15.64;59.51;100509.16;5040943;28;20244;-66
2022/09/26 02:15:46;;;;;;;6.07;2.87;;;13.10;79.40;;;15.62;59.56;100504.06;5043486;28;20201;-66
2022/09/26 02:18:27;;;;;;;3.63;2.70;;;13.10;79.20;;;15.55;59.71;100497.97;5043648;28;20183;-65
2022/09/26 02:21:01;;;;;;;4.83;2.73;;;13.10;79.10;;;15.63;59.68;100496.91;5049363;28;20190;-66
2022/09/26 02:23:28;;;;;;;3.97;2.73;;;13.10;78.90;;;15.70;59.19;100493.19;5049793;28;20218;-66
2022/09/26 02:25:56;;;;;;;3.53;2.80;;;13.20;78.90;;;15.68;59.18;100491.78;5037564;28;20252;-66
2022/09/26 02:28:24;;;;;;;3.20;2.73;;;13.20;78.80;;;15.71;59.16;100478.09;5032893;28;20190;-65
2022/09/26 02:30:53;;;;;;;2.90;2.33;;;13.20;78.70;;;15.69;59.17;100480.94;5032533;28;20224;-66
2022/09/26 02:33:22;;;;;;;4.03;2.73;;;13.20;78.60;;;15.72;59.26;100469.09;5032600;28;20218;-65
2022/09/26 02:35:53;;;;;;;3.43;2.77;;;13.20;78.50;;;15.72;59.27;100458.47;5032699;28;20191;-65
2022/09/26 02:38:21;;;;;;;3.27;2.60;;;13.20;78.50;;;15.72;58.83;100453.16;5033832;28;20183;-66
2022/09/26 02:40:58;;;;;;;4.93;2.73;;;13.20;78.50;;;15.69;59.25;100443.78;5032207;28;20225;-66
2022/09/26 02:43:55;;;;;;;4.00;2.63;;;13.20;78.60;;;15.63;59.54;100439.38;5031451;28;20226;-66
2022/09/26 02:47:00;;;;;;;5.23;2.80;;;13.20;78.50;;;15.62;59.41;100432.41;5032492;28;20939;-66
2022/09/26 02:49:48;;;;;;;4.87;2.73;;;13.20;78.60;;;15.66;59.31;100438.13;5032476;28;20170;-66
2022/09/26 02:52:33;;;;;;;3.10;2.73;;;13.20;78.70;;;15.60;59.70;100423.88;5032155;28;20206;-65
2022/09/26 02:55:16;;;;;;;5.03;2.57;;;13.20;78.80;;;15.63;59.70;100418.13;5032260;28;20229;-65
2022/09/26 02:58:02;;;;;;;3.30;2.90;;;13.30;78.80;;;15.65;59.52;100415.25;5032372;28;20183;-65
2022/09/26 03:00:47;;;;;;;4.00;2.97;;;13.20;79.00;;;15.67;59.81;100414.00;5031823;28;20210;-66
2022/09/26 03:03:22;;;;;;;3.30;2.90;;;13.20;78.80;;;15.69;59.44;100411.94;5031906;28;20222;-66
2022/09/26 03:05:57;;;;;;;6.13;3.23;;;13.20;78.80;;;15.69;59.77;100400.56;5032139;28;20627;-64
2022/09/26 03:08:28;;;;;;;3.63;3.20;;;13.30;79.00;;;15.72;59.66;100395.59;5031581;28;20193;-63
2022/09/26 03:11:04;;;;;;;4.07;3.07;;;13.20;78.80;;;15.72;59.38;100392.97;5033214;28;20245;-66
2022/09/26 03:13:35;;;;;;;4.37;3.10;;;13.20;78.80;;;15.71;59.53;100394.00;5032128;28;20675;-65
2022/09/26 03:16:04;;;;;;;5.47;2.80;;;13.20;78.70;;;15.70;59.50;100387.06;5032143;28;20195;-64
2022/09/26 03:18:40;;;;;;;3.10;2.73;;;13.30;78.80;;;15.71;59.37;100388.69;5031880;28;20245;-66
2022/09/26 03:21:09;;;;;;;4.60;2.93;;;13.30;78.90;;;15.77;59.30;100384.34;5030880;28;20285;-65
2022/09/26 03:23:37;;;;;;;5.03;2.70;;;13.30;78.80;;;15.82;59.27;100380.03;5031765;28;20575;-65
2022/09/26 03:26:12;;;;;;;4.10;3.03;;;13.30;78.80;;;15.85;58.94;100376.94;5033022;28;20203;-65
2022/09/26 03:28:40;;;;;;;3.33;2.90;;;13.30;78.70;;;15.85;58.58;100368.97;5031928;28;20601;-65
2022/09/26 03:31:08;;;;;;;8.30;3.33;;;13.30;78.50;;;15.88;58.67;100362.41;5031610;28;20707;-66
2022/09/26 03:33:35;;;;;;;4.40;3.17;;;13.30;78.50;;;15.87;58.81;100355.47;5032053;28;20709;-66
2022/09/26 03:36:05;;;;;;;7.77;3.40;;;13.30;78.40;;;15.81;58.86;100351.84;5032261;28;20206;-66
2022/09/26 03:38:33;;;;;;;3.27;2.93;;;13.30;78.30;;;15.77;59.03;100355.97;5031962;28;20202;-66
2022/09/26 03:41:01;;;;;;;5.17;2.90;;;13.30;78.40;;;15.80;59.18;100352.88;5032192;28;20195;-66
2022/09/26 03:43:30;;;;;;;4.13;2.70;;;13.30;78.30;;;15.85;59.11;100353.06;5032715;28;20250;-65
2022/09/26 03:46:02;;;;;;;4.93;3.30;;;13.40;78.30;;;15.88;58.73;100346.50;5031684;28;20218;-65
2022/09/26 03:48:30;;;;;;;2.83;2.63;;;13.30;78.30;;;15.93;58.29;100350.09;5032257;28;20547;-66
2022/09/26 03:51:01;;;;;;;5.57;3.10;;;13.30;78.00;;;15.90;58.27;100344.44;5031907;28;20187;-64
2022/09/26 03:53:33;;;;;;;3.57;2.80;;;13.40;78.00;;;15.91;58.50;100346.84;5031797;28;20918;-64
2022/09/26 03:56:05;;;;;;;3.23;2.93;;;13.40;77.90;;;15.93;58.25;100344.78;5031718;28;20202;-64
2022/09/26 03:58:33;;;;;;;3.53;2.80;;;13.40;77.90;;;15.91;58.27;100341.53;5032571;28;20578;-64
2022/09/26 04:01:06;;;;;;;4.03;2.63;;;13.40;77.80;;;15.89;58.49;100327.69;5030966;28;20194;-64
2022/09/26 04:03:36;;;;;;;6.03;3.47;;;13.40;77.90;;;15.91;58.24;100324.81;5031777;28;20601;-63
2022/09/26 04:06:04;;;;;;;8.07;3.47;;;13.40;77.80;;;15.89;58.32;100325.03;5014309;28;20221;-64
2022/09/26 04:08:33;;;;;;;4.53;3.13;;;13.40;77.80;;;15.93;58.44;100318.25;5030463;28;20206;-66
2022/09/26 04:11:02;;;;;;;4.60;3.07;;;13.40;77.80;;;15.90;58.48;100313.38;5031027;28;20583;-66
2022/09/26 04:13:31;;;;;;;3.47;2.63;;;13.40;77.70;;;15.88;58.32;100306.69;5031634;28;20210;-65
2022/09/26 04:16:19;;;;;;;6.17;3.17;;;13.40;78.40;;;15.87;58.42;100300.56;5031251;28;20191;-66
2022/09/26 04:18:47;;;;;;;6.10;2.97;;;13.40;77.50;;;15.82;58.18;100294.28;5031391;28;20586;-66
2022/09/26 04:21:15;;;;;;;4.70;3.17;;;13.40;77.40;;;15.81;58.42;100293.47;5033381;28;20194;-66
2022/09/26 04:23:44;;;;;;;2.90;2.70;;;13.40;77.40;;;15.82;58.54;100284.47;5034957;28;20319;-65
2022/09/26 04:26:14;;;;;;;4.77;3.23;;;13.40;77.50;;;15.84;58.17;100289.56;5033749;28;20190;-66
2022/09/26 04:28:51;;;;;;;3.97;2.80;;;13.40;77.50;;;15.89;58.30;100290.53;5035151;28;20203;-65
2022/09/26 04:31:20;;;;;;;4.57;2.60;;;13.40;77.30;;;15.95;58.13;100286.97;5035698;28;20199;-66
2022/09/26 04:33:48;;;;;;;3.20;2.90;;;13.40;77.30;;;15.94;58.32;100274.75;5034533;28;20710;-65
2022/09/26 04:36:16;;;;;;;3.43;2.83;;;13.40;77.10;;;15.91;58.06;100274.38;5034912;28;20190;-65
2022/09/26 04:38:46;;;;;;;3.67;3.10;;;13.40;77.00;;;15.91;58.04;100272.53;5034619;28;20199;-66
2022/09/26 04:41:18;;;;;;;4.47;2.77;;;13.40;77.00;;;15.94;58.11;100269.44;5066074;28;20195;-65
2022/09/26 04:43:47;;;;;;;3.10;2.80;;;13.40;77.00;;;15.99;57.88;100264.28;5034425;28;20229;-66
2022/09/26 04:46:17;;;;;;;3.40;3.00;;;13.50;77.00;;;16.03;57.53;100262.81;5035644;28;20190;-67
2022/09/26 04:48:51;;;;;;;3.07;2.77;;;13.50;76.90;;;16.06;57.53;100259.72;5034763;28;20195;-67
2022/09/26 04:51:21;;;;;;;2.73;2.53;;;13.50;76.70;;;16.10;57.38;100255.56;5034357;28;20186;-65
2022/09/26 04:53:50;;;;;;;4.30;2.93;;;13.50;76.50;;;16.09;57.48;100259.25;5032968;28;20210;-66
2022/09/26 04:56:20;;;;;;;4.17;2.90;;;13.50;76.30;;;16.03;57.08;100246.88;5033196;28;20187;-66
2022/09/26 04:58:48;;;;;;;5.03;3.10;;;13.50;76.10;;;16.00;57.22;100249.16;5033487;28;20202;-66
2022/09/26 05:01:18;;;;;;;3.33;2.80;;;13.50;76.10;;;15.95;57.54;100249.03;5034286;28;20199;-65
2022/09/26 05:03:47;;;;;;;4.90;2.63;;;13.50;76.20;;;15.98;57.59;100241.41;5035001;28;20215;-66
2022/09/26 05:06:16;;;;;;;4.37;2.50;;;13.50;76.10;;;16.07;57.48;100244.56;5034098;28;20199;-65
2022/09/26 05:08:47;;;;;;;3.00;2.80;;;13.60;76.40;;;16.08;57.36;100230.28;5034152;28;20206;-65
2022/09/26 05:11:20;;;;;;;4.67;3.13;;;13.60;76.30;;;16.08;57.56;100227.63;5033975;28;20712;-65
2022/09/26 05:13:50;;;;;;;3.47;2.80;;;13.60;76.60;;;16.02;57.85;100221.34;5033905;28;20214;-66
2022/09/26 05:16:20;;;;;;;3.37;3.07;;;13.60;76.90;;;16.01;58.63;100211.78;5033400;28;20218;-66
2022/09/26 05:18:49;;;;;;;3.83;2.80;;;13.60;77.60;;;15.93;58.92;100222.69;5035527;28;20186;-65
2022/09/26 05:21:17;;;;;;;4.67;2.57;;;13.60;77.70;;;15.86;59.14;100219.28;5042022;28;20198;-66
2022/09/26 05:26:40;;;;;;;3.37;2.87;;;13.50;79.30;;;15.69;60.97;100207.63;5054193;28;20257;-65
2022/09/26 05:29:08;;;;;;;4.37;3.77;;;13.50;80.10;;;15.62;61.56;100203.47;5053929;28;20555;-65
2022/09/26 05:31:36;;;;;;;2.30;2.13;;;13.40;80.60;;;15.67;61.24;100200.94;5052150;28;20225;-65
2022/09/26 05:34:06;;;;;;;3.40;2.47;;;13.40;80.20;;;15.68;61.54;100203.38;5052784;28;20292;-67
2022/09/26 05:36:34;;;;;;;4.97;2.60;;;13.40;81.10;;;15.66;61.93;100210.75;5039756;28;20199;-66
2022/09/26 05:39:04;;;;;;;2.57;2.37;;;13.30;81.40;;;15.64;61.74;100202.22;5033940;28;20205;-66
2022/09/26 05:41:32;;;;;;;5.17;3.03;;;13.30;81.40;;;15.62;61.85;100204.25;5033961;28;20241;-65
2022/09/26 05:44:00;;;;;;;3.27;2.97;;;13.30;81.40;;;15.67;61.46;100211.53;5035489;28;20292;-66
2022/09/26 05:46:28;;;;;;;4.90;3.00;;;13.30;81.50;;;15.70;61.76;100200.50;5034463;28;20209;-66
2022/09/26 05:48:56;;;;;;;5.03;3.43;;;13.30;81.50;;;15.73;61.49;100200.88;5034652;28;20270;-65
2022/09/26 05:51:23;;;;;;;4.30;3.57;;;13.30;81.50;;;15.75;61.66;100201.47;5035038;28;20590;-66
2022/09/26 05:53:51;;;;;;;6.77;3.70;;;13.30;81.60;;;15.71;61.49;100200.31;5033921;28;20254;-66
2022/09/26 05:56:18;;;;;;;3.23;2.83;;;13.30;81.50;;;15.60;62.03;100195.69;5033727;28;20217;-67
2022/09/26 05:58:47;;;;;;;5.50;3.40;;;13.30;81.60;;;15.61;61.83;100194.69;5034301;28;20205;-66
2022/09/26 06:01:17;;;;;;;4.87;4.07;;;13.30;81.50;;;15.70;61.77;100190.69;5034931;28;20214;-66
2022/09/26 06:03:46;;;;;;;5.60;3.70;;;13.30;81.60;;;15.73;61.63;100184.97;5034491;28;20214;-63
2022/09/26 06:06:19;;;;;;;4.30;3.90;;;13.30;81.50;;;15.73;61.34;100179.66;5034262;28;20191;-66
2022/09/26 06:08:48;;;;;;;6.67;4.00;;;13.40;81.60;;;15.80;61.14;100184.88;5034218;28;20385;-63
2022/09/26 06:11:21;;;;;;;4.13;3.27;;;13.30;81.50;;;15.89;61.47;100178.22;5033367;28;20274;-65
2022/09/26 06:14:01;;;;;;;6.53;4.20;;;13.40;81.60;;;15.91;61.05;100176.97;5037794;28;20215;-66
2022/09/26 06:16:29;;;;;;;3.87;3.50;;;13.40;81.60;;;15.92;61.09;100178.63;5033916;28;20201;-65
2022/09/26 06:18:57;;;;;;;5.80;4.30;;;13.40;81.30;;;15.97;60.94;100170.78;5033032;28;20202;-65
2022/09/26 06:21:24;;;;;;;4.70;3.97;;;13.40;81.40;;;16.02;60.67;100168.25;5031830;28;20260;-67
2022/09/26 06:23:52;;;;;;;7.80;4.07;;;13.50;81.30;;;16.05;60.71;100162.50;5034260;28;20211;-65
2022/09/26 06:26:22;;;;;;;4.63;4.20;;;13.50;81.00;;;16.07;60.51;100163.09;5033273;28;20646;-66
2022/09/26 06:29:01;;;;;;;4.57;4.10;;;13.50;80.90;;;16.13;60.48;100162.19;5033212;28;20229;-65
2022/09/26 06:31:29;;;;;;;7.73;4.30;;;13.60;80.90;;;16.19;60.34;100157.81;5032696;28;20186;-65
2022/09/26 06:33:57;;;;;;;6.80;4.90;;;13.60;81.00;;;16.19;59.98;100150.66;5032192;28;20706;-66
2022/09/26 06:36:24;;;;;;;4.70;4.13;;;13.60;80.70;;;16.19;59.84;100147.19;5031019;28;20597;-65
2022/09/26 06:38:54;;;;;;;4.60;4.03;;;13.60;80.60;;;16.21;60.13;100140.63;5034824;28;20304;-66
2022/09/26 06:41:24;;;;;;;4.87;4.37;;;13.60;80.50;;;16.22;59.69;100144.91;5037997;28;20817;-67
2022/09/26 06:43:53;;;;;;;5.20;4.67;;;13.60;80.40;;;16.18;59.97;100145.59;5050458;28;20267;-66
2022/09/26 06:46:21;;;;;;;4.93;4.37;;;13.60;80.20;;;16.21;59.93;100140.63;5050395;28;20189;-66
2022/09/26 06:48:49;;;;;;;5.73;4.53;;;13.60;80.20;;;16.27;59.76;100134.44;5050744;28;20579;-65
2022/09/26 06:51:17;;;;;;;7.47;5.30;;;13.70;80.40;;;16.31;59.33;100134.78;5045060;28;20670;-65
2022/09/26 06:53:44;;;;;;;5.10;4.60;;;13.70;80.30;;;16.27;59.70;100129.13;5033854;28;20289;-66
2022/09/26 06:56:12;;;;;;;5.23;4.73;;;13.70;80.00;;;16.31;59.51;100123.34;5041696;28;20214;-65
2022/09/26 06:58:40;;;;;;;7.87;4.90;;;13.70;79.90;;;16.31;59.15;100118.84;5032774;28;20194;-65
2022/09/26 07:01:10;;;;;;;5.97;5.37;;;13.70;79.70;;;16.32;59.42;100109.03;5041084;28;20205;-64
2022/09/26 07:03:38;;;;;;;7.07;5.13;;;13.70;79.60;;;16.34;59.29;100106.94;5043847;28;20214;-67
2022/09/26 07:06:12;;;;;;;7.13;5.10;;;13.70;79.50;;;16.32;59.37;100114.34;5043070;28;20225;-66
2022/09/26 07:08:40;;;;;;;6.87;5.37;;;13.70;79.30;;;16.32;59.21;100109.03;5053662;28;20198;-66
2022/09/26 07:11:28;;;;;;;6.60;5.57;;;13.70;79.30;;;16.32;59.35;100103.72;5048674;28;20233;-66
2022/09/26 07:14:16;;;;;;;5.23;4.73;;;13.70;79.30;;;16.37;59.18;100095.88;5060793;28;20190;-66
2022/09/26 07:16:47;;;;;;;6.63;5.83;;;13.80;79.30;;;16.46;58.99;100097.16;5050576;28;20266;-67
2022/09/26 07:19:15;;;;;;;6.93;5.43;;;13.80;79.20;;;16.42;58.68;100094.16;5053767;28;20678;-67
2022/09/26 07:21:43;;;;;;;9.00;5.83;;;13.80;78.80;;;16.46;58.89;100087.34;5061796;28;20194;-67
2022/09/26 07:24:14;;;;;;;7.40;5.30;;;13.90;78.60;;;16.52;58.60;100088.31;5043026;28;20190;-65
2022/09/26 07:26:41;;;;;;;7.90;5.27;;;13.90;78.40;;;16.57;58.19;100086.56;5038277;28;20197;-66
2022/09/26 07:29:09;;;;;;;8.50;5.73;;;14.00;78.20;;;16.57;58.15;100081.25;5035650;28;20206;-65
2022/09/26 07:31:37;;;;;;;6.00;5.40;;;14.00;78.10;;;16.67;58.18;100080.69;5047226;28;20220;-65
2022/09/26 07:34:07;;;;;;;7.77;5.33;;;14.00;78.00;;;16.75;57.95;100080.38;5051774;28;20186;-66
2022/09/26 07:36:35;;;;;;;7.90;5.63;;;14.10;77.80;;;16.74;57.85;100089.38;5051762;28;20206;-66
2022/09/26 07:39:02;;;;;;;5.90;5.13;;;14.10;77.50;;;16.68;57.58;100071.69;5053011;28;20651;-65
2022/09/26 07:41:30;;;;;;;6.30;5.53;;;14.10;76.90;;;16.62;57.17;100073.41;5052533;28;20198;-65
2022/09/26 07:43:57;;;;;;;7.57;5.00;;;14.10;76.60;;;16.71;57.60;100081.88;5050889;28;20547;-65
2022/09/26 07:52:21;;;;;;;7.13;5.80;;;14.30;76.60;;;16.80;56.78;100064.53;5031549;28;20321;-66
2022/09/26 07:54:49;;;;;;;7.83;5.53;;;14.30;75.90;;;16.82;56.75;100062.44;5037800;28;20198;-66
2022/09/26 07:57:18;;;;;;;4.97;4.50;;;14.30;75.90;;;17.01;56.58;100055.97;5052286;28;20834;-67
2022/09/26 07:59:48;;;;;;;7.97;5.27;;;14.40;76.00;;;17.22;56.28;100054.53;5053979;28;20186;-65
2022/09/26 08:02:24;;;;;;;5.37;4.90;;;14.50;76.00;;;17.21;55.74;100055.59;5054157;28;20237;-65
2022/09/26 08:04:53;;;;;;;5.37;4.87;;;14.60;75.20;;;17.29;55.50;100053.38;5055118;28;20198;-63
2022/09/26 08:07:27;;;;;;;5.53;4.77;;;14.60;75.00;;;17.34;55.23;100040.19;5053162;28;20197;-65
2022/09/26 08:09:55;;;;;;;6.53;5.23;;;14.70;74.70;;;17.33;54.92;100048.41;5054159;28;20208;-67
2022/09/26 08:12:23;;;;;;;10.73;4.77;;;14.70;74.00;;;17.25;54.37;100052.22;5055741;28;20216;-66
2022/09/26 08:14:51;;;;;;;6.27;4.90;;;14.70;73.30;;;17.29;54.67;100053.38;5055198;28;20186;-65
2022/09/26 08:17:20;;;;;;;6.63;4.80;;;14.70;73.30;;;17.19;54.57;100039.03;5051390;28;20189;-65
2022/09/26 08:19:47;;;;;;;4.83;4.40;;;14.70;72.60;;;17.20;54.51;100033.50;5046872;28;20210;-66
2022/09/26 08:22:18;;;;;;;9.80;4.30;;;14.70;72.60;;;17.30;54.42;100033.72;5041541;28;20702;-65
2022/09/26 08:24:48;;;;;;;5.83;4.07;;;14.80;72.80;;;17.43;54.04;100022.78;5056611;28;20194;-66
2022/09/26 08:27:16;;;;;;;6.13;4.60;;;14.80;72.90;;;17.48;53.40;100030.06;5055812;28;20277;-65
2022/09/26 08:29:48;;;;;;;6.83;3.73;;;14.80;71.70;;;17.58;53.00;100035.63;5055437;28;20194;-65
2022/09/26 08:32:16;;;;;;;4.43;3.50;;;14.90;72.10;;;17.72;53.03;100030.81;5050166;28;20679;-65
2022/09/26 08:34:52;;;;;;;5.07;3.90;;;15.00;72.00;;;17.89;52.62;100031.66;5036380;28;20278;-65
2022/09/26 08:37:26;;;;;;;4.30;3.87;;;15.00;71.80;;;17.92;52.39;100033.84;5035546;28;20210;-66
2022/09/26 08:39:54;;;;;;;7.33;4.57;;;15.10;71.30;;;17.89;52.41;100032.47;5035445;28;20196;-64
2022/09/26 08:42:42;;;;;;;4.97;4.53;;;15.20;71.10;;;17.95;52.55;100031.50;5034911;28;20214;-63
2022/09/26 08:48:46;;;;;;;5.17;4.13;;;15.30;71.20;;;17.98;51.92;100035.53;5039480;28;20199;-66
2022/09/26 08:51:28;;;;;;;6.37;4.13;;;15.30;70.30;;;17.97;51.94;100023.28;5050038;28;20259;-65
2022/09/26 08:54:07;;;;;;;6.70;5.10;;;15.40;70.00;;;18.06;52.04;100024.50;5033427;28;20222;-64
2022/09/26 08:56:42;;;;;;;4.90;4.40;;;15.40;70.40;;;18.04;51.69;100018.63;5048344;28;20296;-67
2022/09/26 08:59:21;;;;;;;5.50;4.43;;;15.40;69.80;;;17.96;51.85;100021.66;5055739;28;20185;-65
2022/09/26 09:01:51;;;;;;;7.03;4.70;;;15.40;69.70;;;17.88;51.56;100020.19;5054173;28;20233;-66
2022/09/26 09:04:26;;;;;;;8.50;3.97;;;15.40;68.90;;;17.69;51.87;100017.97;5054179;28;20188;-65
2022/09/26 09:07:09;;;;;;;6.23;4.60;;;15.30;68.70;;;17.64;52.00;100012.56;5051966;28;20193;-65
2022/09/26 09:09:39;;;;;;;6.00;4.43;;;15.30;68.90;;;17.66;52.11;100021.13;5054392;28;20174;-67
2022/09/26 09:12:17;;;;;;;6.07;4.43;;;15.30;69.40;;;17.67;52.53;100022.72;5053706;28;20214;-66
2022/09/26 09:15:04;;;;;;;6.00;4.03;;;15.30;70.00;;;17.61;52.67;100010.38;5054428;28;20265;-64
2022/09/26 09:18:07;;;;;;;7.30;4.83;;;15.30;70.00;;;17.51;53.20;100014.47;5054493;28;20190;-65
2022/09/26 09:20:55;;;;;;;4.23;3.67;;;15.20;70.20;;;17.40;53.53;100015.28;5052615;28;20181;-65
2022/09/26 09:23:44;;;;;;;6.97;4.60;;;15.20;70.80;;;17.36;54.30;100011.47;5048905;28;20218;-65
2022/09/26 09:26:26;;;;;;;6.33;4.67;;;15.20;71.30;;;17.34;54.32;100008.25;5052458;28;20259;-65
2022/09/26 09:29:42;;;;;;;5.43;4.57;;;15.10;71.70;;;17.28;54.58;100014.50;5053439;28;20193;-67
2022/09/26 09:32:21;;;;;;;8.77;4.87;;;15.10;71.70;;;17.35;54.22;99998.41;5054066;28;20213;-66
2022/09/26 09:34:51;;;;;;;6.67;4.73;;;15.10;71.70;;;17.38;54.49;100001.41;5055225;28;20194;-66
2022/09/26 09:37:28;;;;;;;9.63;5.13;;;15.10;72.00;;;17.41;54.28;99998.28;5052912;28;20280;-67
2022/09/26 09:39:56;;;;;;;7.53;4.53;;;15.10;72.00;;;17.46;54.35;100001.03;5034509;28;20201;-65
2022/09/26 09:42:40;;;;;;;5.77;4.97;;;15.10;72.00;;;17.41;54.40;99992.97;5034064;28;20663;-66
2022/09/26 09:45:18;;;;;;;6.87;4.83;;;15.00;72.30;;;17.46;54.88;99995.72;5033390;28;20647;-66
2022/09/26 09:47:45;;;;;;;5.70;5.03;;;15.10;72.90;;;17.50;54.61;99986.19;5035132;28;20240;-64
2022/09/26 09:50:22;;;;;;;5.43;4.70;;;15.10;72.70;;;17.56;54.40;99992.47;5035177;28;20198;-66
2022/09/26 09:53:05;;;;;;;7.03;4.90;;;15.10;72.90;;;17.52;54.46;99978.00;5034589;28;20240;-66
2022/09/26 09:55:48;;;;;;;7.73;4.93;;;15.00;73.10;;;17.44;54.59;99975.72;5053871;28;20238;-65
2022/09/26 09:58:52;;;;;;;9.07;4.53;;;15.00;73.10;;;17.29;55.27;99973.56;5054051;28;20185;-66
2022/09/26 10:01:31;;;;;;;6.43;5.03;;;15.00;72.90;;;17.06;56.16;99973.66;5052158;28;20198;-65
2022/09/26 10:04:10;;;;;;;7.77;4.60;;;14.90;73.80;;;16.84;56.61;99965.47;5053557;28;20210;-65
2022/09/26 10:06:40;;;;;;;4.73;4.27;;;14.80;74.00;;;16.75;57.11;99960.75;5053892;28;20174;-67
2022/09/26 10:09:21;;;;;;;9.27;5.13;;;14.70;74.20;;;16.63;57.56;99970.59;5051885;28;20686;-66
2022/09/26 10:12:13;;;;;;;6.63;4.30;;;14.70;75.00;;;16.59;58.11;99962.28;5033509;28;20675;-65
2022/09/26 10:14:49;;;;;;;4.87;3.80;;;14.60;75.70;;;16.43;58.69;99946.19;5034323;28;20177;-66
2022/09/26 10:17:19;;;;;;;4.27;3.73;;;14.50;76.20;;;16.36;59.16;99945.50;5033621;28;20240;-65
2022/09/26 10:19:48;;;;;;;7.23;5.00;;;14.40;76.70;;;16.38;59.50;99938.13;5033739;28;20210;-66
2022/09/26 10:22:24;;;;;;;5.33;4.77;;;14.30;77.40;;;16.40;59.56;99942.19;5034113;28;20215;-66
2022/09/26 10:25:01;;;;;;;5.37;4.87;;;14.30;78.10;;;16.44;59.77;99934.53;5032929;28;20258;-65
2022/09/26 10:27:37;;;;;;;8.23;5.60;;;14.30;78.50;;;16.40;59.90;99928.09;5033711;28;20662;-65
2022/09/26 10:30:29;;;;;;;8.63;5.47;;;14.20;78.60;;;16.35;60.44;99920.00;5033880;28;20637;-65
2022/09/26 10:32:59;;;;;;;6.07;5.47;;;14.20;79.10;;;16.41;60.57;99911.09;5031887;28;20706;-65
2022/09/26 10:35:39;;;;;;;6.17;5.33;;;14.20;79.50;;;16.40;60.75;99920.13;5033394;28;20265;-65
2022/09/26 10:38:19;;;;;;;6.60;5.90;;;14.20;79.80;;;16.36;60.89;99903.00;5032763;28;20531;-66
2022/09/26 10:40:53;;;;;;;8.30;6.03;;;14.20;80.30;;;16.34;61.13;99899.78;5032618;28;20193;-66
2022/09/26 10:43:29;;;;;;;7.70;6.50;;;14.10;80.50;;;16.31;61.37;99900.25;5045779;28;20664;-66
2022/09/26 10:46:09;;;;;;;7.53;5.50;;;14.10;80.60;;;16.42;61.49;99896.78;5053524;28;20227;-66
2022/09/26 10:48:48;;;;;;;9.17;6.37;;;14.20;81.00;;;16.54;60.86;99887.78;5053593;28;20207;-67
2022/09/26 10:51:28;;;;;;;8.33;6.90;;;14.20;80.90;;;16.59;60.69;99882.56;5051441;28;20209;-65